createdAt,value
2022-10-12T00:01:10.125Z,6.35
2022-10-12T00:03:39.571Z,6.33
2022-10-12T00:06:12.688Z,6.29
2022-10-12T00:08:40.990Z,6.25
2022-10-12T00:11:11.557Z,6.21
2022-10-12T00:13:38.166Z,6.18
2022-10-12T00:16:07.034Z,6.13
2022-10-12T00:18:34.777Z,6.09
2022-10-12T00:21:06.284Z,6.06
2022-10-12T00:23:34.185Z,6.05
2022-10-12T00:26:06.044Z,6.03
2022-10-12T00:28:33.498Z,6.04
2022-10-12T00:31:01.558Z,6.04
2022-10-12T00:33:29.414Z,6.04
2022-10-12T00:35:56.502Z,6.03
2022-10-12T00:38:23.611Z,6.04
2022-10-12T00:40:50.298Z,6.04
2022-10-12T00:43:39.165Z,6.05
2022-10-12T00:46:13.961Z,6.05
2022-10-12T00:48:41.659Z,6.04
2022-10-12T00:51:09.925Z,6.03
2022-10-12T00:53:43.062Z,6.03
2022-10-12T00:56:16.265Z,6.04
2022-10-12T00:58:43.982Z,6.00
2022-10-12T01:01:10.984Z,5.98
2022-10-12T01:03:37.966Z,5.96
2022-10-12T01:06:07.111Z,5.94
2022-10-12T01:08:34.424Z,5.93
2022-10-12T01:11:01.063Z,5.92
2022-10-12T01:13:27.933Z,5.90
2022-10-12T01:16:02.487Z,5.91
2022-10-12T01:18:33.656Z,5.87
2022-10-12T01:21:19.745Z,5.85
2022-10-12T01:24:05.283Z,5.82
2022-10-12T01:27:16.706Z,5.79
2022-10-12T01:30:05.487Z,5.77
2022-10-12T01:32:56.595Z,5.77
2022-10-12T01:35:38.314Z,5.77
2022-10-12T01:38:38.656Z,5.77
2022-10-12T01:41:29.403Z,5.77
2022-10-12T01:43:56.015Z,5.77
2022-10-12T01:46:25.606Z,5.76
2022-10-12T01:48:55.465Z,5.78
2022-10-12T01:51:53.396Z,5.79
2022-10-12T01:54:43.388Z,5.80
2022-10-12T01:57:19.044Z,5.80
2022-10-12T02:00:03.950Z,5.78
2022-10-12T02:02:55.073Z,5.73
2022-10-12T02:05:42.579Z,5.66
2022-10-12T02:08:09.106Z,5.61
2022-10-12T02:10:40.389Z,5.56
2022-10-12T02:13:14.412Z,5.52
2022-10-12T02:15:43.781Z,5.51
2022-10-12T02:18:15.667Z,5.52
2022-10-12T02:20:42.663Z,5.51
2022-10-12T02:23:10.491Z,5.50
2022-10-12T02:25:37.630Z,5.47
2022-10-12T02:28:12.069Z,5.41
2022-10-12T02:30:52.743Z,5.36
2022-10-12T02:33:26.190Z,5.34
2022-10-12T02:36:00.886Z,5.30
2022-10-12T02:38:39.947Z,5.28
2022-10-12T02:41:15.326Z,5.27
2022-10-12T02:44:01.229Z,5.27
2022-10-12T02:46:33.947Z,5.24
2022-10-12T02:49:02.805Z,5.23
2022-10-12T02:51:31.242Z,5.26
2022-10-12T02:54:00.398Z,5.23
2022-10-12T02:56:27.102Z,5.25
2022-10-12T02:58:53.760Z,5.23
2022-10-12T03:01:22.659Z,5.22
2022-10-12T03:03:49.328Z,5.23
2022-10-12T03:06:16.495Z,5.22
2022-10-12T03:08:43.142Z,5.22
2022-10-12T03:11:12.911Z,5.18
2022-10-12T03:13:39.536Z,5.18
2022-10-12T03:16:09.079Z,5.17
2022-10-12T03:18:36.459Z,5.13
2022-10-12T03:21:03.689Z,5.09
2022-10-12T03:23:30.887Z,5.04
2022-10-12T03:25:57.516Z,5.00
2022-10-12T03:28:26.757Z,4.95
2022-10-12T03:30:53.652Z,4.92
2022-10-12T03:33:20.341Z,4.87
2022-10-12T03:35:49.026Z,4.86
2022-10-12T03:38:16.984Z,4.84
2022-10-12T03:40:44.261Z,4.76
2022-10-12T03:43:11.616Z,4.70
2022-10-12T03:45:39.409Z,4.66
2022-10-12T03:48:08.415Z,4.60
2022-10-12T03:50:35.505Z,4.58
2022-10-12T03:53:04.015Z,4.60
2022-10-12T03:55:34.633Z,4.61
2022-10-12T03:58:01.302Z,4.62
2022-10-12T04:00:28.283Z,4.63
2022-10-12T04:03:02.326Z,4.64
2022-10-12T04:05:30.002Z,4.62
2022-10-12T04:07:56.942Z,4.60
2022-10-12T04:10:26.220Z,4.57
2022-10-12T04:12:52.930Z,4.55
2022-10-12T04:17:54.359Z,4.49
2022-10-12T04:20:20.990Z,4.44
2022-10-12T04:22:50.356Z,4.41
2022-10-12T04:25:17.063Z,4.39
2022-10-12T04:27:46.728Z,4.39
2022-10-12T04:30:13.685Z,4.33
2022-10-12T04:32:43.575Z,4.27
2022-10-12T04:35:12.489Z,4.22
2022-10-12T04:37:39.412Z,4.20
2022-10-12T04:40:06.841Z,4.17
2022-10-12T04:42:36.187Z,4.13
2022-10-12T04:45:02.910Z,4.11
2022-10-12T04:47:29.713Z,4.06
2022-10-12T04:49:56.380Z,4.03
2022-10-12T04:52:23.097Z,4.04
2022-10-12T04:54:49.732Z,4.05
2022-10-12T04:57:16.314Z,4.06
2022-10-12T04:59:43.165Z,4.06
2022-10-12T05:02:09.816Z,4.03
2022-10-12T05:04:36.421Z,3.96
2022-10-12T05:07:03.078Z,3.87
2022-10-12T05:09:29.723Z,3.84
2022-10-12T05:11:56.411Z,3.78
2022-10-12T05:14:23.010Z,3.80
2022-10-12T05:16:49.606Z,3.85
2022-10-12T05:19:16.217Z,3.87
2022-10-12T05:21:42.811Z,3.89
2022-10-12T05:24:10.788Z,3.89
2022-10-12T05:26:37.374Z,3.82
2022-10-12T05:29:04.871Z,3.82
2022-10-12T05:31:31.451Z,3.81
2022-10-12T05:33:58.154Z,3.82
2022-10-12T05:36:24.915Z,3.86
2022-10-12T05:38:51.503Z,3.86
2022-10-12T05:41:18.318Z,3.87
2022-10-12T05:43:44.922Z,3.86
2022-10-12T05:46:14.543Z,3.85
2022-10-12T05:48:41.348Z,3.83
2022-10-12T05:51:07.958Z,3.86
2022-10-12T05:53:34.558Z,3.84
2022-10-12T05:56:01.908Z,3.83
2022-10-12T05:58:30.438Z,3.82
2022-10-12T06:01:05.533Z,3.84
2022-10-12T06:03:34.980Z,3.86
2022-10-12T06:06:03.149Z,3.88
2022-10-12T06:08:31.334Z,3.88
2022-10-12T06:10:58.044Z,3.83
2022-10-12T06:13:25.407Z,3.83
2022-10-12T06:15:52.171Z,3.84
2022-10-12T06:18:19.588Z,3.83
2022-10-12T06:20:48.086Z,3.85
2022-10-12T06:23:15.188Z,3.88
2022-10-12T06:25:42.024Z,3.85
2022-10-12T06:28:08.657Z,3.84
2022-10-12T06:30:35.324Z,3.86
2022-10-12T06:33:02.000Z,3.86
2022-10-12T06:35:28.866Z,3.86
2022-10-12T06:37:55.493Z,3.89
2022-10-12T06:40:22.127Z,3.91
2022-10-12T06:42:49.710Z,3.93
2022-10-12T06:45:17.101Z,3.95
2022-10-12T06:47:43.786Z,3.99
2022-10-12T06:50:11.027Z,4.00
2022-10-12T06:52:38.353Z,3.99
2022-10-12T06:55:07.031Z,4.00
2022-10-12T06:57:33.654Z,4.03
2022-10-12T07:00:00.276Z,4.09
2022-10-12T07:02:26.943Z,4.13
2022-10-12T07:04:53.748Z,4.18
2022-10-12T07:07:20.407Z,4.23
2022-10-12T07:09:47.117Z,4.30
2022-10-12T07:12:13.711Z,4.37
2022-10-12T07:14:40.327Z,4.46
2022-10-12T07:17:06.937Z,4.51
2022-10-12T07:19:33.594Z,4.58
2022-10-12T07:22:00.825Z,4.64
2022-10-12T07:24:35.793Z,4.70
2022-10-12T07:27:09.927Z,4.79
2022-10-12T07:29:37.935Z,4.85
2022-10-12T07:32:05.286Z,4.91
2022-10-12T07:34:31.910Z,4.97
2022-10-12T07:36:59.923Z,5.05
2022-10-12T07:39:27.117Z,5.16
2022-10-12T07:41:54.321Z,5.22
2022-10-12T07:44:21.303Z,5.30
2022-10-12T07:46:48.273Z,5.40
2022-10-12T07:49:15.820Z,5.47
2022-10-12T07:51:43.195Z,5.55
2022-10-12T07:54:16.457Z,5.64
2022-10-12T07:56:46.750Z,5.75
2022-10-12T07:59:13.391Z,5.83
2022-10-12T08:01:40.088Z,5.91
2022-10-12T08:04:06.733Z,5.97
2022-10-12T08:06:34.304Z,6.05
2022-10-12T08:09:02.144Z,6.12
2022-10-12T08:11:29.723Z,6.18
2022-10-12T08:13:56.416Z,6.24
2022-10-12T08:16:24.028Z,6.30
2022-10-12T08:18:51.202Z,6.37
2022-10-12T08:21:18.366Z,6.48
2022-10-12T08:23:45.741Z,6.58
2022-10-12T08:26:13.671Z,6.73
2022-10-12T08:28:41.091Z,6.87
2022-10-12T08:31:16.569Z,7.01
2022-10-12T08:33:43.525Z,7.09
2022-10-12T08:36:11.906Z,7.16
2022-10-12T08:38:39.049Z,7.21
2022-10-12T08:41:22.728Z,7.28
2022-10-12T08:44:21.840Z,7.34
2022-10-12T08:46:49.282Z,7.41
2022-10-12T08:49:22.676Z,7.48
2022-10-12T08:51:55.421Z,7.55
2022-10-12T08:54:31.028Z,7.63
2022-10-12T08:56:58.136Z,7.68
2022-10-12T08:59:26.301Z,7.76
2022-10-12T09:01:59.440Z,7.84
2022-10-12T09:04:49.286Z,7.92
2022-10-12T09:07:43.961Z,8.01
2022-10-12T09:10:25.902Z,8.12
2022-10-12T09:12:59.480Z,8.23
2022-10-12T09:15:33.493Z,8.36
2022-10-12T09:18:02.749Z,8.47
2022-10-12T09:20:35.271Z,8.58
2022-10-12T09:23:30.741Z,8.70
2022-10-12T09:26:07.242Z,8.81
2022-10-12T09:28:37.733Z,8.88
2022-10-12T09:31:08.108Z,8.96
2022-10-12T09:33:57.129Z,9.06
2022-10-12T09:36:26.672Z,9.16
2022-10-12T09:38:53.864Z,9.27
2022-10-12T09:41:32.662Z,9.37
2022-10-12T09:44:01.739Z,9.48
2022-10-12T09:46:40.523Z,9.58
2022-10-12T09:49:07.203Z,9.72
2022-10-12T09:51:34.172Z,9.89
2022-10-12T09:54:05.956Z,10.05
2022-10-12T09:56:44.431Z,10.14
2022-10-12T09:59:29.231Z,10.13
2022-10-12T10:02:12.144Z,10.13
2022-10-12T10:04:40.448Z,10.13
2022-10-12T10:07:30.416Z,10.08
2022-10-12T10:10:10.270Z,10.08
2022-10-12T10:12:58.994Z,10.11
2022-10-12T10:15:28.030Z,10.14
2022-10-12T10:18:00.674Z,10.18
2022-10-12T10:20:29.899Z,10.24
2022-10-12T10:22:57.174Z,10.27
2022-10-12T10:25:24.703Z,10.32
2022-10-12T10:28:11.361Z,10.36
2022-10-12T10:30:41.039Z,10.42
2022-10-12T10:33:19.093Z,10.45
2022-10-12T10:36:18.098Z,10.45
2022-10-12T10:39:05.559Z,10.51
2022-10-12T10:41:37.429Z,10.55
2022-10-12T10:44:06.422Z,10.66
2022-10-12T10:46:36.406Z,10.71
2022-10-12T10:49:21.239Z,10.75
2022-10-12T10:51:53.237Z,10.77
2022-10-12T10:54:23.067Z,10.78
2022-10-12T10:56:53.293Z,10.79
2022-10-12T10:59:47.711Z,10.78
2022-10-12T11:02:38.468Z,10.77
2022-10-12T11:05:18.235Z,10.79
2022-10-12T11:07:51.307Z,10.82
2022-10-12T11:10:24.687Z,10.86
2022-10-12T11:12:57.387Z,10.87
2022-10-12T11:15:44.650Z,10.90
2022-10-12T11:18:22.134Z,10.90
2022-10-12T11:21:04.497Z,10.94
2022-10-12T11:23:55.091Z,10.98
2022-10-12T11:26:32.090Z,11.04
2022-10-12T11:29:00.675Z,11.13
2022-10-12T11:31:34.402Z,11.23
2022-10-12T11:34:13.321Z,11.27
2022-10-12T11:37:07.424Z,11.30
2022-10-12T11:39:37.185Z,11.29
2022-10-12T11:42:21.275Z,11.30
2022-10-12T11:44:49.011Z,11.30
2022-10-12T11:47:25.749Z,11.31
2022-10-12T11:50:33.143Z,11.26
2022-10-12T11:53:02.386Z,11.21
2022-10-12T11:55:41.158Z,11.19
2022-10-12T11:58:24.410Z,11.15
2022-10-12T12:01:07.370Z,11.18
2022-10-12T12:03:46.091Z,11.17
2022-10-12T12:06:30.999Z,11.12
2022-10-12T12:09:03.609Z,11.04
2022-10-12T12:11:32.866Z,10.99
2022-10-12T12:14:21.131Z,10.99
2022-10-12T12:16:49.633Z,10.99
2022-10-12T12:19:37.817Z,10.97
2022-10-12T12:22:16.334Z,10.95
2022-10-12T12:25:00.270Z,10.95
2022-10-12T12:27:33.906Z,10.89
2022-10-12T12:30:03.099Z,10.85
2022-10-12T12:33:06.787Z,10.81
2022-10-12T12:36:04.888Z,10.78
2022-10-12T12:38:49.435Z,10.77
2022-10-12T12:41:21.479Z,10.77
2022-10-12T12:43:57.030Z,10.76
2022-10-12T12:46:45.284Z,10.74
2022-10-12T12:49:39.764Z,10.71
2022-10-12T12:52:11.013Z,10.71
2022-10-12T12:54:53.166Z,10.72
2022-10-12T12:57:35.245Z,10.71
2022-10-12T13:00:10.996Z,10.67
2022-10-12T13:02:49.336Z,10.66
2022-10-12T13:05:24.955Z,10.67
2022-10-12T13:07:54.268Z,10.68
2022-10-12T13:10:36.081Z,10.66
2022-10-12T13:13:38.823Z,10.64
2022-10-12T13:17:23.850Z,10.65
2022-10-12T13:19:22.541Z,10.65
2022-10-12T13:21:52.370Z,10.64
2022-10-12T13:24:49.467Z,10.66
2022-10-12T13:27:40.974Z,10.67
2022-10-12T13:30:10.565Z,10.67
2022-10-12T13:32:59.313Z,10.66
2022-10-12T13:36:06.321Z,10.66
2022-10-12T13:38:35.383Z,10.66
2022-10-12T13:41:13.195Z,10.66
2022-10-12T13:43:46.524Z,10.68
2022-10-12T13:46:42.862Z,10.67
2022-10-12T13:49:20.179Z,10.65
2022-10-12T13:51:53.233Z,10.63
2022-10-12T13:54:47.785Z,10.61
2022-10-12T13:57:39.247Z,10.59
2022-10-12T14:00:17.868Z,10.58
2022-10-12T14:03:08.621Z,10.58
2022-10-12T14:05:44.320Z,10.59
2022-10-12T14:08:15.588Z,10.62
2022-10-12T14:10:44.562Z,10.60
2022-10-12T14:13:17.845Z,10.59
2022-10-12T14:15:44.699Z,10.58
2022-10-12T14:18:39.276Z,10.54
2022-10-12T14:21:23.399Z,10.53
2022-10-12T14:24:07.169Z,10.50
2022-10-12T14:26:37.272Z,10.48
2022-10-12T14:29:25.291Z,10.45
2022-10-12T14:31:57.413Z,10.43
2022-10-12T14:34:27.158Z,10.41
2022-10-12T14:37:24.124Z,10.37
2022-10-12T14:39:52.421Z,10.34
2022-10-12T14:42:18.957Z,10.29
2022-10-12T14:44:45.586Z,10.27
2022-10-12T14:47:33.122Z,10.24
2022-10-12T14:50:01.634Z,10.20
2022-10-12T14:52:28.565Z,10.18
2022-10-12T14:54:57.809Z,10.13
2022-10-12T14:57:27.131Z,10.09
2022-10-12T14:59:53.825Z,10.05
2022-10-12T15:02:27.171Z,10.00
2022-10-12T15:04:54.423Z,9.93
2022-10-12T15:07:24.003Z,9.90
2022-10-12T15:09:51.257Z,9.85
2022-10-12T15:12:26.574Z,9.79
2022-10-12T15:14:56.130Z,9.76
2022-10-12T15:17:22.832Z,9.73
2022-10-12T15:19:50.999Z,9.69
2022-10-12T15:22:21.737Z,9.64
2022-10-12T15:24:49.458Z,9.61
2022-10-12T15:27:16.257Z,9.58
2022-10-12T15:29:44.005Z,9.54
2022-10-12T15:32:12.457Z,9.51
2022-10-12T15:34:39.475Z,9.46
2022-10-12T15:37:12.062Z,9.45
2022-10-12T15:39:38.871Z,9.42
2022-10-12T15:42:05.586Z,9.37
2022-10-12T15:44:39.345Z,9.33
2022-10-12T15:47:08.959Z,9.28
2022-10-12T15:49:35.566Z,9.24
2022-10-12T15:52:02.256Z,9.20
2022-10-12T15:54:28.888Z,9.12
2022-10-12T15:56:55.720Z,9.08
2022-10-12T15:59:22.598Z,9.06
2022-10-12T16:01:49.198Z,9.01
2022-10-12T16:04:21.512Z,8.96
2022-10-12T16:06:48.122Z,8.89
2022-10-12T16:09:16.159Z,8.83
2022-10-12T16:11:42.770Z,8.78
2022-10-12T16:14:15.788Z,8.74
2022-10-12T16:16:42.370Z,8.74
2022-10-12T16:19:09.234Z,8.73
2022-10-12T16:21:35.850Z,8.69
2022-10-12T16:24:04.404Z,8.64
2022-10-12T16:26:33.167Z,8.59
2022-10-12T16:28:59.922Z,8.52
2022-10-12T16:31:26.578Z,8.47
2022-10-12T16:33:53.177Z,8.41
2022-10-12T16:36:19.780Z,8.36
2022-10-12T16:38:46.383Z,8.31
2022-10-12T16:41:15.851Z,8.26
2022-10-12T16:43:43.207Z,8.20
2022-10-12T16:46:10.175Z,8.14
2022-10-12T16:48:37.095Z,8.05
2022-10-12T16:51:14.920Z,8.00
2022-10-12T16:53:44.435Z,7.97
2022-10-12T16:56:11.218Z,7.95
2022-10-12T16:58:41.092Z,7.91
2022-10-12T17:01:12.148Z,7.85
2022-10-12T17:03:38.839Z,7.77
2022-10-12T17:06:05.770Z,7.70
2022-10-12T17:08:35.638Z,7.66
2022-10-12T17:11:07.238Z,7.59
2022-10-12T17:13:36.696Z,7.55
2022-10-12T17:16:23.527Z,7.47
2022-10-12T17:18:58.159Z,7.42
2022-10-12T17:21:26.273Z,7.37
2022-10-12T17:23:56.223Z,7.31
2022-10-12T17:26:22.979Z,7.24
2022-10-12T17:28:49.879Z,7.23
2022-10-12T17:31:16.656Z,7.22
2022-10-12T17:33:43.493Z,7.22
2022-10-12T17:36:11.164Z,7.22
2022-10-12T17:38:37.762Z,7.21
2022-10-12T17:41:05.377Z,7.19
2022-10-12T17:43:32.349Z,7.19
2022-10-12T17:45:59.221Z,7.11
2022-10-12T17:48:25.845Z,7.08
2022-10-12T17:50:52.443Z,7.06
2022-10-12T17:53:22.244Z,7.05
2022-10-12T17:55:49.264Z,7.02
2022-10-12T17:58:15.974Z,7.01
2022-10-12T18:00:42.597Z,6.97
2022-10-12T18:03:09.463Z,6.91
2022-10-12T18:05:36.152Z,6.87
2022-10-12T18:08:03.015Z,6.83
2022-10-12T18:10:29.662Z,6.78
2022-10-12T18:12:56.286Z,6.74
2022-10-12T18:15:23.269Z,6.72
2022-10-12T18:17:50.675Z,6.68
2022-10-12T18:20:18.599Z,6.64
2022-10-12T18:22:45.239Z,6.60
2022-10-12T18:25:11.883Z,6.54
2022-10-12T18:27:38.566Z,6.49
2022-10-12T18:30:05.583Z,6.47
2022-10-12T18:32:32.166Z,6.49
2022-10-12T18:34:58.775Z,6.50
2022-10-12T18:37:25.384Z,6.53
2022-10-12T18:39:52.242Z,6.55
2022-10-12T18:42:19.172Z,6.57
2022-10-12T18:44:45.995Z,6.60
2022-10-12T18:47:14.736Z,6.61
2022-10-12T18:49:41.404Z,6.61
2022-10-12T18:52:08.021Z,6.58
2022-10-12T18:54:34.638Z,6.55
2022-10-12T18:57:01.592Z,6.54
2022-10-12T18:59:28.292Z,6.55
2022-10-12T19:01:54.999Z,6.58
2022-10-12T19:04:21.717Z,6.60
2022-10-12T19:06:48.362Z,6.65
2022-10-12T19:09:14.985Z,6.68
2022-10-12T19:11:41.757Z,6.71
2022-10-12T19:14:15.667Z,6.71
2022-10-12T19:16:53.518Z,6.63
2022-10-12T19:19:21.594Z,6.59
2022-10-12T19:21:50.282Z,6.53
2022-10-12T19:24:18.057Z,6.49
2022-10-12T19:26:44.839Z,6.49
2022-10-12T19:29:14.794Z,6.49
2022-10-12T19:31:45.571Z,6.48
2022-10-12T19:34:14.314Z,6.45
2022-10-12T19:36:41.638Z,6.42
2022-10-12T19:39:12.590Z,6.36
2022-10-12T19:41:40.106Z,6.37
2022-10-12T19:44:06.930Z,6.38
2022-10-12T19:46:33.854Z,6.37
2022-10-12T19:49:00.714Z,6.36
2022-10-12T19:51:29.422Z,6.34
2022-10-12T19:53:57.850Z,6.33
2022-10-12T19:56:25.865Z,6.29
2022-10-12T19:58:55.563Z,6.29
2022-10-12T20:01:28.603Z,6.27
2022-10-12T20:03:58.416Z,6.25
2022-10-12T20:06:28.587Z,6.21
2022-10-12T20:08:57.870Z,6.16
2022-10-12T20:11:25.189Z,6.13
2022-10-12T20:13:52.537Z,6.11
2022-10-12T20:16:20.390Z,6.12
2022-10-12T20:18:47.637Z,6.12
2022-10-12T20:21:16.491Z,6.08
2022-10-12T20:23:43.768Z,6.05
2022-10-12T20:26:14.798Z,6.00
2022-10-12T20:28:41.513Z,5.98
2022-10-12T20:31:08.353Z,5.99
2022-10-12T20:33:37.612Z,6.01
2022-10-12T20:36:08.723Z,6.01
2022-10-12T20:38:35.360Z,6.00
2022-10-12T20:41:06.920Z,6.00
2022-10-12T20:43:33.803Z,5.99
2022-10-12T20:46:05.156Z,5.97
2022-10-12T20:48:32.550Z,5.96
2022-10-12T20:50:59.597Z,5.97
2022-10-12T20:53:28.618Z,5.97
2022-10-12T20:55:57.259Z,6.00
2022-10-12T20:58:28.030Z,6.03
2022-10-12T21:01:12.743Z,6.05
2022-10-12T21:03:53.467Z,6.07
2022-10-12T21:06:22.746Z,6.10
2022-10-12T21:08:50.913Z,6.11
2022-10-12T21:11:19.060Z,6.10
2022-10-12T21:13:46.127Z,6.09
2022-10-12T21:16:14.294Z,6.11
2022-10-12T21:18:44.023Z,6.09
2022-10-12T21:21:21.092Z,6.09
2022-10-12T21:24:01.297Z,6.10
2022-10-12T21:26:30.085Z,6.10
2022-10-12T21:28:58.999Z,6.12
2022-10-12T21:31:31.821Z,6.15
2022-10-12T21:34:01.788Z,6.16
2022-10-12T21:36:29.568Z,6.18
2022-10-12T21:38:59.873Z,6.21
2022-10-12T21:41:30.949Z,6.21
2022-10-12T21:43:59.900Z,6.22
2022-10-12T21:46:34.047Z,6.21
2022-10-12T21:49:02.170Z,6.21
2022-10-12T21:51:31.473Z,6.20
2022-10-12T21:53:58.474Z,6.23
2022-10-12T21:56:30.581Z,6.23
2022-10-12T21:59:02.674Z,6.23
2022-10-12T22:01:35.939Z,6.24
2022-10-12T22:04:06.828Z,6.26
2022-10-12T22:06:34.934Z,6.26
2022-10-12T22:09:08.111Z,6.24
2022-10-12T22:11:36.832Z,6.25
2022-10-12T22:14:07.363Z,6.25
2022-10-12T22:16:34.273Z,6.25
2022-10-12T22:19:02.687Z,6.24
2022-10-12T22:21:32.651Z,6.26
2022-10-12T22:24:02.568Z,6.28
2022-10-12T22:26:32.128Z,6.31
2022-10-12T22:29:00.419Z,6.33
2022-10-12T22:31:27.590Z,6.33
2022-10-12T22:33:55.288Z,6.36
2022-10-12T22:36:24.614Z,6.41
2022-10-12T22:38:51.254Z,6.47
2022-10-12T22:41:22.164Z,6.52
2022-10-12T22:43:53.737Z,6.47
2022-10-12T22:46:22.437Z,6.57
2022-10-12T22:48:49.799Z,6.60
2022-10-12T22:51:22.686Z,6.61
2022-10-12T22:53:49.341Z,6.60
2022-10-12T22:56:19.657Z,6.61
2022-10-12T22:58:48.841Z,6.60
2022-10-12T23:01:17.333Z,6.61
2022-10-12T23:03:46.568Z,6.60
2022-10-12T23:06:16.001Z,6.59
2022-10-12T23:08:46.122Z,6.57
2022-10-12T23:11:19.152Z,6.56
2022-10-12T23:13:48.900Z,6.52
2022-10-12T23:16:23.987Z,6.51
2022-10-12T23:18:59.097Z,6.48
2022-10-12T23:21:30.366Z,6.46
2022-10-12T23:24:01.222Z,6.43
2022-10-12T23:26:30.729Z,6.36
2022-10-12T23:28:57.786Z,6.35
2022-10-12T23:31:27.793Z,6.32
2022-10-12T23:33:56.494Z,6.30
2022-10-12T23:36:23.110Z,6.28
2022-10-12T23:38:49.807Z,6.27
2022-10-12T23:41:16.414Z,6.27
2022-10-12T23:43:46.640Z,6.26
2022-10-12T23:46:13.423Z,6.25
2022-10-12T23:48:43.040Z,6.23
2022-10-12T23:51:09.846Z,6.23
2022-10-12T23:53:41.949Z,6.22
2022-10-12T23:56:11.813Z,6.18
2022-10-12T23:58:38.763Z,6.17
